Time;durP1;ratioP1;P1;durP2;ratioP2;P2;SDS_P1;SDS_P2;PMS_P1;PMS_P2;Temp;Humidity;BMP_temperature;BMP_pressure;BME280_temperature;BME280_humidity;BME280_pressure;Samples;Min_cycle;Max_cycle;Signal;HPM_P1;HPM_P2
2021/12/01 00:00:09;;;;;;;3.80;1.10;;;;;;;7.61;100.00;99646.53;694386;28;1926;-50
2021/12/01 00:00:33;;;;;;;3.03;0.93;;;;;;;7.69;100.00;99657.75;693356;28;1249;-50
2021/12/01 00:00:53;;;;;;;1.70;0.80;;;;;;;7.63;100.00;99658.66;696265;28;1430;-49
2021/12/01 00:01:14;;;;;;;1.90;0.80;;;;;;;7.62;100.00;99654.34;696211;28;3296;-49
2021/12/01 00:01:35;;;;;;;2.92;0.90;;;;;;;7.61;100.00;99652.59;696185;28;4562;-50
2021/12/01 00:01:55;;;;;;;3.38;0.90;;;;;;;7.57;100.00;99663.06;697094;28;1615;-50
2021/12/01 00:02:16;;;;;;;2.57;1.00;;;;;;;7.61;100.00;99649.16;698346;28;1226;-49
2021/12/01 00:02:36;;;;;;;1.63;0.90;;;;;;;7.69;100.00;99656.91;698127;28;1368;-50
2021/12/01 00:02:59;;;;;;;1.60;0.90;;;;;;;7.66;100.00;99655.19;698162;28;1332;-50
2021/12/01 00:03:20;;;;;;;2.13;0.80;;;;;;;7.67;100.00;99654.31;697718;28;1542;-50
2021/12/01 00:03:41;;;;;;;1.42;0.80;;;;;;;7.75;100.00;99656.81;695464;28;2717;-49
2021/12/01 00:04:01;;;;;;;1.70;0.80;;;;;;;7.76;100.00;99654.22;693907;28;1280;-50
2021/12/01 00:04:22;;;;;;;1.40;0.80;;;;;;;7.75;100.00;99651.63;693343;28;4351;-50
2021/12/01 00:04:43;;;;;;;1.80;0.80;;;;;;;7.71;100.00;99649.94;695375;28;1242;-51
2021/12/01 00:05:04;;;;;;;1.90;0.70;;;;;;;7.72;100.00;99649.06;692600;28;1526;-49
2021/12/01 00:05:28;;;;;;;2.50;1.00;;;;;;;7.74;100.00;99645.56;692411;28;1500;-49
2021/12/01 00:05:50;;;;;;;1.80;0.70;;;;;;;7.83;100.00;99645.47;692616;28;1512;-51
2021/12/01 00:06:11;;;;;;;2.08;0.75;;;;;;;7.81;100.00;99647.22;695363;28;1412;-53
2021/12/01 00:06:32;;;;;;;1.83;0.80;;;;;;;7.84;100.00;99649.78;693609;28;1344;-51
2021/12/01 00:06:52;;;;;;;2.30;0.90;;;;;;;7.91;100.00;99649.75;695209;28;1183;-52
2021/12/01 00:07:13;;;;;;;1.87;0.80;;;;;;;7.88;100.00;99644.56;694823;28;3238;-50
2021/12/01 00:07:35;;;;;;;2.22;0.80;;;;;;;7.83;100.00;99645.47;694401;28;4347;-50
2021/12/01 00:07:56;;;;;;;2.33;0.77;;;;;;;7.81;100.00;99641.19;694760;28;1289;-50
2021/12/01 00:08:17;;;;;;;1.92;0.70;;;;;;;7.86;100.00;99648.91;694945;28;1129;-49
2021/12/01 00:08:38;;;;;;;2.27;0.70;;;;;;;7.82;100.00;99638.56;695908;28;1341;-50
2021/12/01 00:08:58;;;;;;;2.10;0.80;;;;;;;7.77;100.00;99645.53;697753;28;1312;-49
2021/12/01 00:09:19;;;;;;;2.28;0.80;;;;;;;7.75;100.00;99644.66;698424;28;1459;-50
2021/12/01 00:09:39;;;;;;;2.23;0.80;;;;;;;7.71;100.00;99649.94;698439;28;1704;-49
2021/12/01 00:10:02;;;;;;;1.67;0.80;;;;;;;7.64;100.00;99639.59;697445;28;1186;-50
2021/12/01 00:10:24;;;;;;;1.25;0.63;;;;;;;7.74;100.00;99644.69;696274;28;4624;-50
2021/12/01 00:10:45;;;;;;;2.42;0.80;;;;;;;7.70;100.00;99641.28;697533;28;3656;-50
2021/12/01 00:11:06;;;;;;;2.33;0.80;;;;;;;7.77;100.00;99635.13;694520;28;1487;-50
2021/12/01 00:11:27;;;;;;;1.65;0.70;;;;;;;7.74;100.00;99640.38;693496;28;1312;-51
2021/12/01 00:11:47;;;;;;;2.33;0.77;;;;;;;7.73;100.00;99645.59;694931;28;1989;-50
2021/12/01 00:12:08;;;;;;;1.23;0.70;;;;;;;7.80;100.00;99640.28;694812;28;1297;-49
2021/12/01 00:12:28;;;;;;;2.40;0.70;;;;;;;7.77;100.00;99639.47;694484;28;1506;-50
2021/12/01 00:12:49;;;;;;;2.57;0.70;;;;;;;7.71;100.00;99642.13;695664;28;1499;-51
2021/12/01 00:13:13;;;;;;;3.05;0.70;;;;;;;7.70;100.00;99643.00;694591;28;1570;-50
2021/12/01 00:13:35;;;;;;;2.00;0.70;;;;;;;7.64;100.00;99643.91;693271;28;4523;-50
2021/12/01 00:13:55;;;;;;;1.65;0.70;;;;;;;7.73;100.00;99637.78;695041;28;1217;-49
2021/12/01 00:14:16;;;;;;;1.88;0.73;;;;;;;7.70;100.00;99635.19;694450;28;1328;-50
2021/12/01 00:14:36;;;;;;;1.50;0.70;;;;;;;7.82;100.00;99638.56;694911;28;1117;-49
2021/12/01 00:14:57;;;;;;;1.77;0.70;;;;;;;7.73;100.00;99638.63;695460;28;933;-50
2021/12/01 00:15:19;;;;;;;1.20;0.60;;;;;;;7.80;100.00;99636.84;693547;28;1439;-57
2021/12/01 00:15:45;;;;;;;2.20;0.80;;;;;;;7.73;100.00;99633.44;694642;28;1278;-52
2021/12/01 00:16:07;;;;;;;1.58;0.70;;;;;;;7.74;100.00;99631.69;694773;28;1341;-49
2021/12/01 00:16:28;;;;;;;1.35;0.70;;;;;;;7.77;100.00;99636.88;695649;28;4561;-50
2021/12/01 00:16:48;;;;;;;1.35;0.70;;;;;;;7.88;100.00;99636.75;698271;28;3710;-50
2021/12/01 00:17:11;;;;;;;1.67;0.70;;;;;;;7.82;100.00;99628.16;698320;28;1452;-49
2021/12/01 00:17:32;;;;;;;1.42;0.60;;;;;;;7.81;100.00;99633.38;694009;28;1319;-50
2021/12/01 00:17:52;;;;;;;1.65;0.60;;;;;;;7.74;100.00;99634.28;695527;28;1595;-50
2021/12/01 00:18:13;;;;;;;2.17;0.70;;;;;;;7.71;100.00;99631.72;695263;28;1364;-52
2021/12/01 00:18:34;;;;;;;1.40;0.70;;;;;;;7.77;100.00;99629.91;692358;28;1408;-49
2021/12/01 00:18:54;;;;;;;1.50;0.70;;;;;;;7.73;100.00;99630.81;691876;28;1369;-50
2021/12/01 00:19:15;;;;;;;1.63;0.63;;;;;;;7.67;100.00;99628.31;692149;28;1122;-53
2021/12/01 00:19:35;;;;;;;2.03;0.60;;;;;;;7.65;100.00;99628.28;693507;28;4592;-50
2021/12/01 00:19:55;;;;;;;1.83;0.70;;;;;;;7.76;100.00;99625.59;694844;28;3557;-49
2021/12/01 00:20:18;;;;;;;1.43;0.67;;;;;;;7.73;100.00;99635.19;694974;28;1158;-49
2021/12/01 00:20:39;;;;;;;2.33;0.70;;;;;;;7.67;100.00;99625.69;698031;28;1160;-49
2021/12/01 00:21:00;;;;;;;1.50;0.70;;;;;;;7.66;100.00;99627.41;697926;28;1719;-50
2021/12/01 00:21:20;;;;;;;1.90;0.77;;;;;;;7.68;100.00;99627.41;695697;28;1246;-49
2021/12/01 00:21:41;;;;;;;2.55;0.80;;;;;;;7.63;100.00;99631.81;694879;28;1360;-49
2021/12/01 00:22:01;;;;;;;1.65;0.60;;;;;;;7.82;100.00;99630.75;695133;28;1298;-50
2021/12/01 00:22:22;;;;;;;1.30;0.60;;;;;;;7.88;100.00;99621.13;693511;28;4349;-49
2021/12/01 00:22:43;;;;;;;0.95;0.60;;;;;;;7.94;100.00;99626.28;693456;28;3112;-49
2021/12/01 00:23:04;;;;;;;1.45;0.60;;;;;;;8.03;100.00;99623.59;693979;28;3379;-50
2021/12/01 00:23:26;;;;;;;1.30;0.63;;;;;;;7.97;100.00;99621.03;690093;28;1196;-50
2021/12/01 00:23:46;;;;;;;2.30;0.68;;;;;;;7.93;100.00;99625.41;691216;28;1234;-51
2021/12/01 00:24:06;;;;;;;1.67;0.70;;;;;;;7.82;100.00;99617.75;686755;28;2481;-50
2021/12/01 00:24:27;;;;;;;1.40;0.60;;;;;;;7.81;100.00;99618.59;686184;28;1286;-52
2021/12/01 00:24:47;;;;;;;1.53;0.70;;;;;;;7.86;100.00;99613.34;687345;28;1481;-52
2021/12/01 00:25:10;;;;;;;2.17;0.63;;;;;;;7.82;100.00;99615.13;689060;28;1360;-50
2021/12/01 00:25:32;;;;;;;1.48;0.60;;;;;;;7.76;100.00;99622.13;691990;28;4580;-50
2021/12/01 00:25:53;;;;;;;1.48;0.70;;;;;;;7.83;100.00;99618.59;692452;28;3336;-53
2021/12/01 00:26:14;;;;;;;1.35;0.63;;;;;;;7.79;100.00;99612.53;696636;28;3523;-49
2021/12/01 00:26:34;;;;;;;1.60;0.67;;;;;;;7.70;100.00;99620.47;697120;28;1134;-49
2021/12/01 00:26:54;;;;;;;1.15;0.70;;;;;;;7.64;100.00;99617.91;695193;28;1548;-49
2021/12/01 00:27:15;;;;;;;2.07;0.60;;;;;;;7.61;100.00;99604.94;694906;28;1344;-49
2021/12/01 00:27:36;;;;;;;1.33;0.60;;;;;;;7.62;100.00;99614.47;692330;28;1267;-50
2021/12/01 00:27:57;;;;;;;1.67;0.70;;;;;;;7.55;100.00;99607.59;690625;28;1375;-50
2021/12/01 00:28:18;;;;;;;1.73;0.60;;;;;;;7.53;100.00;99610.19;691416;28;4461;-51
2021/12/01 00:28:38;;;;;;;1.70;0.70;;;;;;;7.56;100.00;99606.69;691910;28;1156;-51
2021/12/01 00:28:58;;;;;;;1.07;0.60;;;;;;;7.76;100.00;99607.38;692305;28;2961;-51
2021/12/01 00:29:19;;;;;;;1.00;0.70;;;;;;;7.74;100.00;99614.34;695322;28;3740;-50
2021/12/01 00:29:39;;;;;;;1.47;0.80;;;;;;;7.77;100.00;99610.84;696651;28;1354;-49
2021/12/01 00:29:59;;;;;;;1.17;0.70;;;;;;;7.70;100.00;99606.56;693932;28;1284;-50
2021/12/01 00:30:21;;;;;;;1.17;0.70;;;;;;;7.64;100.00;99612.69;695270;28;1245;-50
2021/12/01 00:30:42;;;;;;;1.13;0.63;;;;;;;7.61;100.00;99608.38;698151;28;1372;-50
2021/12/01 00:31:03;;;;;;;1.58;0.70;;;;;;;7.77;100.00;99608.25;695136;28;1313;-49
2021/12/01 00:31:23;;;;;;;1.92;0.70;;;;;;;7.68;100.00;99611.78;693523;28;4486;-49
2021/12/01 00:31:43;;;;;;;1.58;0.70;;;;;;;7.67;100.00;99607.50;694838;28;1976;-49
2021/12/01 00:32:04;;;;;;;1.60;0.70;;;;;;;7.75;100.00;99600.44;694206;28;1758;-49
2021/12/01 00:32:25;;;;;;;1.33;0.70;;;;;;;7.82;100.00;99606.44;694452;28;2261;-51
2021/12/01 00:32:46;;;;;;;0.82;0.70;;;;;;;7.87;100.00;99607.28;694280;28;1310;-49
2021/12/01 00:33:12;;;;;;;1.48;0.60;;;;;;;7.83;100.00;99610.78;697445;28;1365;-50
2021/12/01 00:33:34;;;;;;;2.15;0.70;;;;;;;7.73;100.00;99606.56;697731;28;943;-51
2021/12/01 00:33:56;;;;;;;1.85;0.80;;;;;;;7.64;100.00;99597.09;698006;28;1546;-50
2021/12/01 00:34:16;;;;;;;1.70;0.70;;;;;;;7.62;100.00;99604.06;693158;28;1519;-51
2021/12/01 00:34:37;;;;;;;2.58;0.80;;;;;;;7.75;100.00;99608.25;693440;28;4267;-51
2021/12/01 00:34:59;;;;;;;1.77;0.83;;;;;;;7.73;100.00;99606.56;694000;28;2101;-50
2021/12/01 00:35:20;;;;;;;2.22;0.80;;;;;;;7.61;100.00;99597.13;694027;28;1382;-51
2021/12/01 00:35:41;;;;;;;2.55;0.70;;;;;;;7.58;100.00;99608.41;695338;28;1500;-49
2021/12/01 00:36:01;;;;;;;3.20;0.70;;;;;;;7.73;100.00;99602.22;694873;28;1209;-49
2021/12/01 00:36:22;;;;;;;1.73;0.80;;;;;;;7.70;100.00;99596.16;695214;28;1341;-51
2021/12/01 00:36:42;;;;;;;1.37;0.70;;;;;;;7.75;100.00;99589.19;692149;28;1353;-51
2021/12/01 00:37:03;;;;;;;1.60;0.70;;;;;;;7.78;100.00;99591.75;691803;28;1195;-52
2021/12/01 00:37:23;;;;;;;1.77;0.80;;;;;;;7.85;100.00;99598.63;692712;28;4429;-50
2021/12/01 00:37:44;;;;;;;1.43;0.60;;;;;;;7.83;100.00;99592.56;695537;28;1209;-51
2021/12/01 00:38:05;;;;;;;1.97;0.77;;;;;;;7.90;100.00;99599.41;694401;28;1954;-49
2021/12/01 00:38:28;;;;;;;1.55;0.77;;;;;;;7.86;100.00;99589.06;694731;28;1170;-51
2021/12/01 00:38:48;;;;;;;1.42;0.68;;;;;;;7.84;100.00;99591.69;697042;28;1174;-49
2021/12/01 00:39:09;;;;;;;1.50;0.70;;;;;;;7.91;100.00;99579.50;697276;28;1233;-52
2021/12/01 00:39:29;;;;;;;1.65;0.77;;;;;;;7.90;100.00;99590.78;698036;28;1332;-51
2021/12/01 00:39:50;;;;;;;3.13;0.80;;;;;;;7.97;100.00;99584.59;697166;28;1170;-53
2021/12/01 00:40:11;;;;;;;1.20;0.68;;;;;;;7.95;100.00;99588.97;697724;28;1345;-53
2021/12/01 00:40:32;;;;;;;1.50;0.73;;;;;;;7.95;100.00;99581.19;696934;28;4873;-51
2021/12/01 00:40:53;;;;;;;1.50;0.70;;;;;;;7.87;100.00;99586.44;695013;28;1377;-50
2021/12/01 00:41:14;;;;;;;1.67;0.70;;;;;;;7.95;100.00;99587.22;694962;28;3481;-52
2021/12/01 00:41:34;;;;;;;1.93;0.70;;;;;;;8.01;100.00;99591.50;694160;28;1317;-53
2021/12/01 00:41:56;;;;;;;1.73;0.60;;;;;;;7.88;100.00;99575.19;694491;28;1862;-53
2021/12/01 00:42:18;;;;;;;1.38;0.70;;;;;;;7.81;100.00;99582.19;694844;28;1440;-53
2021/12/01 00:42:40;;;;;;;1.42;0.80;;;;;;;7.84;100.00;99581.28;695003;28;4091;-49
2021/12/01 00:43:00;;;;;;;1.17;0.63;;;;;;;7.83;100.00;99576.97;697597;28;1226;-52
2021/12/01 00:43:24;;;;;;;1.83;0.70;;;;;;;7.83;100.00;99583.00;696963;28;4581;-50
2021/12/01 00:43:44;;;;;;;2.40;0.80;;;;;;;7.78;100.00;99578.75;694867;28;1040;-50
2021/12/01 00:44:07;;;;;;;2.17;1.00;;;;;;;7.77;100.00;99571.84;695164;28;1206;-50
2021/12/01 00:44:30;;;;;;;1.92;0.80;;;;;;;7.79;100.00;99572.66;694465;28;2019;-50
2021/12/01 00:44:59;;;;;;;1.42;0.70;;;;;;;7.73;100.00;99572.75;695491;28;1447;-49
2021/12/01 00:45:22;;;;;;;2.08;0.80;;;;;;;7.67;100.00;99565.88;693752;28;1264;-51
2021/12/01 00:45:53;;;;;;;2.55;0.73;;;;;;;7.65;100.00;99560.66;696953;28;1453;-50
2021/12/01 00:46:20;;;;;;;3.13;0.80;;;;;;;7.75;100.00;99558.81;697469;28;1137;-52
2021/12/01 00:46:42;;;;;;;2.17;0.70;;;;;;;7.71;100.00;99570.13;697196;28;5040;-51
2021/12/01 00:47:31;;;;;;;2.00;0.70;;;;;;;7.72;100.00;99561.47;694336;28;3054;-52
2021/12/01 00:47:53;;;;;;;2.03;0.80;;;;;;;7.72;100.00;99566.66;693867;28;1832;-52
2021/12/01 00:48:13;;;;;;;1.88;0.88;;;;;;;7.65;100.00;99559.81;694472;28;1235;-50
2021/12/01 00:48:34;;;;;;;1.80;0.85;;;;;;;7.69;100.00;99548.50;695064;28;1360;-50
2021/12/01 00:48:54;;;;;;;2.00;0.80;;;;;;;7.81;100.00;99558.75;694450;28;1330;-52
2021/12/01 00:49:14;;;;;;;1.60;0.70;;;;;;;7.98;100.00;99549.91;695380;28;1335;-51
2021/12/01 00:49:35;;;;;;;1.50;0.70;;;;;;;7.96;100.00;99556.84;696831;28;5484;-51
2021/12/01 00:49:55;;;;;;;1.88;0.70;;;;;;;8.02;100.00;99552.44;694270;28;1152;-52
2021/12/01 00:50:26;;;;;;;1.40;0.70;;;;;;;8.10;100.00;99556.69;693526;28;1289;-51
2021/12/01 00:50:47;;;;;;;2.25;0.70;;;;;;;8.05;100.00;99556.75;693028;28;2423;-50
2021/12/01 00:51:08;;;;;;;2.42;0.80;;;;;;;7.91;100.00;99553.47;694683;28;1118;-50
2021/12/01 00:51:28;;;;;;;2.92;0.70;;;;;;;7.92;100.00;99555.16;694911;28;1010;-51
2021/12/01 00:51:49;;;;;;;1.92;0.70;;;;;;;7.87;100.00;99563.03;695873;28;1925;-52
2021/12/01 00:52:09;;;;;;;1.83;0.77;;;;;;;7.80;100.00;99550.97;698301;28;1187;-50
2021/12/01 00:52:29;;;;;;;1.83;0.80;;;;;;;7.75;100.00;99555.38;693908;28;5257;-50
2021/12/01 00:52:53;;;;;;;1.65;0.73;;;;;;;7.74;100.00;99553.63;694137;28;1261;-50
2021/12/01 00:53:13;;;;;;;1.83;0.77;;;;;;;7.83;100.00;99551.78;694533;28;1301;-49
2021/12/01 00:53:34;;;;;;;2.10;0.67;;;;;;;7.85;100.00;99549.19;692631;28;1910;-50
2021/12/01 00:53:54;;;;;;;2.10;0.90;;;;;;;7.79;100.00;99550.09;694770;28;3709;-52
2021/12/01 00:54:17;;;;;;;2.67;0.90;;;;;;;7.83;100.00;99553.53;695217;28;1551;-52
2021/12/01 00:54:37;;;;;;;1.85;0.70;;;;;;;7.88;100.00;99550.88;694314;28;1436;-50
2021/12/01 00:54:57;;;;;;;1.20;0.60;;;;;;;7.99;100.00;99543.81;695067;28;1464;-50
2021/12/01 00:55:18;;;;;;;1.67;0.77;;;;;;;7.99;100.00;99546.44;694380;28;4583;-50
2021/12/01 00:55:40;;;;;;;1.48;0.70;;;;;;;7.99;100.00;99549.03;694367;28;1372;-52
2021/12/01 00:56:01;;;;;;;1.23;0.60;;;;;;;7.98;100.00;99548.16;694801;28;1376;-51
2021/12/01 00:56:21;;;;;;;2.37;0.80;;;;;;;8.03;100.00;99542.91;694855;28;1255;-51
2021/12/01 00:56:41;;;;;;;1.77;0.80;;;;;;;7.94;100.00;99545.63;694264;28;3759;-51
2021/12/01 00:57:02;;;;;;;1.55;0.80;;;;;;;7.89;100.00;99550.00;694181;28;1280;-54
2021/12/01 00:57:22;;;;;;;2.10;0.80;;;;;;;7.84;100.00;99543.09;691702;28;1130;-53
2021/12/01 00:57:43;;;;;;;1.90;0.80;;;;;;;7.95;100.00;99547.34;691197;28;1365;-52
2021/12/01 00:58:04;;;;;;;1.83;0.90;;;;;;;7.94;100.00;99543.00;692770;28;1199;-53
2021/12/01 00:58:24;;;;;;;1.42;0.70;;;;;;;7.97;100.00;99538.63;691851;28;4469;-51
2021/12/01 00:58:45;;;;;;;1.90;0.80;;;;;;;8.00;100.00;99537.72;692004;28;1349;-50
2021/12/01 00:59:06;;;;;;;2.47;0.80;;;;;;;7.93;100.00;99538.69;692638;28;1305;-50
2021/12/01 00:59:27;;;;;;;2.63;0.90;;;;;;;7.91;100.00;99536.09;695116;28;1171;-50
2021/12/01 00:59:47;;;;;;;1.80;0.80;;;;;;;7.94;100.00;99538.66;695015;28;4345;-50
2021/12/01 01:00:09;;;;;;;1.77;0.90;;;;;;;7.96;100.00;99531.72;691480;28;1419;-52
2021/12/01 01:00:31;;;;;;;1.70;0.80;;;;;;;7.92;100.00;99530.03;693220;28;1529;-50
2021/12/01 01:00:51;;;;;;;1.42;1.00;;;;;;;7.85;100.00;99533.59;692023;28;1440;-51
2021/12/01 01:01:12;;;;;;;2.10;1.10;;;;;;;7.80;100.00;99532.75;690883;28;1325;-51
2021/12/01 01:01:32;;;;;;;1.75;0.88;;;;;;;7.87;100.00;99520.56;689378;28;5256;-50
2021/12/01 01:01:53;;;;;;;1.53;0.87;;;;;;;7.84;100.00;99532.69;689926;28;1342;-54
2021/12/01 01:02:13;;;;;;;2.28;0.82;;;;;;;7.81;100.00;99532.75;691957;28;1627;-55
2021/12/01 01:02:35;;;;;;;2.13;0.90;;;;;;;7.74;100.00;99533.69;693168;28;1349;-50
2021/12/01 01:02:57;;;;;;;1.73;0.90;;;;;;;7.65;100.00;99526.84;694320;28;3032;-52
2021/12/01 01:03:18;;;;;;;3.30;1.50;;;;;;;7.63;100.00;99535.56;694871;28;1467;-54
2021/12/01 01:03:39;;;;;;;1.92;1.10;;;;;;;7.67;100.00;99530.31;696352;28;1517;-52
2021/12/01 01:03:59;;;;;;;1.67;0.80;;;;;;;7.80;100.00;99525.81;698054;28;1253;-51
2021/12/01 01:04:21;;;;;;;1.80;0.80;;;;;;;7.86;100.00;99527.47;696239;28;4398;-50
2021/12/01 01:04:41;;;;;;;1.52;0.90;;;;;;;7.87;100.00;99530.97;696662;28;1361;-52
2021/12/01 01:05:03;;;;;;;1.40;0.90;;;;;;;7.87;100.00;99520.56;697593;28;1254;-51
2021/12/01 01:05:24;;;;;;;1.48;0.82;;;;;;;7.82;100.00;99524.06;696456;28;1106;-53
2021/12/01 01:05:44;;;;;;;2.75;0.90;;;;;;;7.82;100.00;99531.88;696858;28;1023;-51
2021/12/01 01:06:05;;;;;;;2.30;1.00;;;;;;;7.81;100.00;99519.72;694042;28;3604;-51
2021/12/01 01:06:27;;;;;;;2.42;1.10;;;;;;;7.75;100.00;99526.75;694894;28;1590;-50
2021/12/01 01:06:47;;;;;;;1.58;0.90;;;;;;;7.71;100.00;99523.31;693832;28;1119;-50
2021/12/01 01:07:08;;;;;;;1.33;0.90;;;;;;;7.86;100.00;99526.63;695405;28;879;-51
2021/12/01 01:07:28;;;;;;;2.93;0.93;;;;;;;7.81;100.00;99527.53;693688;28;4457;-51
2021/12/01 01:07:49;;;;;;;2.40;1.00;;;;;;;7.81;100.00;99530.16;694812;28;1416;-54
2021/12/01 01:08:10;;;;;;;1.73;1.00;;;;;;;7.89;100.00;99523.97;695497;28;1396;-50
2021/12/01 01:08:30;;;;;;;1.52;0.90;;;;;;;7.83;100.00;99524.91;694757;28;1290;-51
2021/12/01 01:08:51;;;;;;;2.10;0.98;;;;;;;7.84;100.00;99522.28;695516;28;1364;-51
2021/12/01 01:09:11;;;;;;;2.30;1.20;;;;;;;7.79;100.00;99524.09;692656;28;3466;-49
2021/12/01 01:09:33;;;;;;;1.90;0.93;;;;;;;7.82;100.00;99526.66;693652;28;1402;-51
2021/12/01 01:09:53;;;;;;;1.92;0.95;;;;;;;7.90;100.00;99530.91;697033;28;1269;-50
2021/12/01 01:16:43;;;;;;;2.45;0.90;;;;;;;7.89;100.00;99508.38;692650;28;5107;-52
2021/12/01 01:17:06;;;;;;;1.85;1.05;;;;;;;7.81;100.00;99511.09;697307;28;1251;-50
2021/12/01 01:17:36;;;;;;;2.55;1.20;;;;;;;7.71;100.00;99510.28;694181;28;1006;-50
2021/12/01 01:18:05;;;;;;;3.03;1.10;;;;;;;7.78;100.00;99506.78;696479;28;1338;-50
2021/12/01 01:18:28;;;;;;;2.40;1.00;;;;;;;7.71;100.00;99505.09;696264;28;3516;-52
2021/12/01 01:18:52;;;;;;;2.90;1.00;;;;;;;7.65;100.00;99505.19;693846;28;1180;-53
2021/12/01 01:19:14;;;;;;;2.50;1.02;;;;;;;7.59;100.00;99495.72;692788;28;1281;-51
2021/12/01 01:19:37;;;;;;;1.83;1.00;;;;;;;7.60;100.00;99499.16;692605;28;4557;-51
2021/12/01 01:19:57;;;;;;;2.17;1.00;;;;;;;7.72;100.00;99499.03;694011;28;1261;-51
2021/12/01 01:20:18;;;;;;;2.57;1.10;;;;;;;7.81;100.00;99503.28;693597;28;2575;-51
2021/12/01 01:20:38;;;;;;;2.38;1.10;;;;;;;7.77;100.00;99494.63;695373;28;1148;-50
2021/12/01 01:20:59;;;;;;;2.10;1.10;;;;;;;7.75;100.00;99496.38;697282;28;1442;-51
2021/12/01 01:21:20;;;;;;;2.13;1.20;;;;;;;7.71;100.00;99499.88;696969;28;3142;-49
2021/12/01 01:21:47;;;;;;;2.03;1.20;;;;;;;7.73;100.00;99490.34;696299;28;3677;-54
2021/12/01 01:22:08;;;;;;;2.00;1.08;;;;;;;7.90;100.00;99494.47;696893;28;1362;-52
2021/12/01 01:22:28;;;;;;;2.38;1.10;;;;;;;7.97;100.00;99496.97;696375;28;4414;-52
2021/12/01 01:22:49;;;;;;;2.43;1.03;;;;;;;7.97;100.00;99491.75;697199;28;1249;-54
2021/12/01 01:23:09;;;;;;;1.52;1.00;;;;;;;7.96;100.00;99494.41;694119;28;1415;-52
2021/12/01 01:23:30;;;;;;;1.73;1.10;;;;;;;7.90;100.00;99492.72;694212;28;1131;-52
2021/12/01 01:23:50;;;;;;;2.20;1.10;;;;;;;7.85;100.00;99497.16;694376;28;1242;-54
2021/12/01 01:24:11;;;;;;;1.88;0.95;;;;;;;7.90;100.00;99497.09;694901;28;1273;-51
2021/12/01 01:24:32;;;;;;;1.87;1.00;;;;;;;7.99;100.00;99494.38;691844;28;3219;-51
2021/12/01 01:24:53;;;;;;;2.40;1.10;;;;;;;7.94;100.00;99483.16;692171;28;3821;-53
2021/12/01 01:25:13;;;;;;;2.13;1.00;;;;;;;8.02;100.00;99495.19;691962;28;1175;-52
2021/12/01 01:25:33;;;;;;;1.95;1.10;;;;;;;8.05;100.00;99499.50;694941;28;4434;-50
2021/12/01 01:25:54;;;;;;;2.30;1.20;;;;;;;8.01;100.00;99485.63;693723;28;1221;-52
2021/12/01 01:26:18;;;;;;;1.83;1.00;;;;;;;8.02;100.00;99482.16;694355;28;1155;-53
2021/12/01 01:26:38;;;;;;;1.17;0.80;;;;;;;7.98;100.00;99487.44;698249;28;1281;-51
2021/12/01 01:26:59;;;;;;;3.63;1.20;;;;;;;8.01;100.00;99482.19;697447;28;1266;-52
2021/12/01 01:27:19;;;;;;;4.05;1.30;;;;;;;7.95;100.00;99490.09;696484;28;1079;-51
2021/12/01 01:27:39;;;;;;;2.40;1.00;;;;;;;7.99;100.00;99484.81;697137;28;1989;-52
2021/12/01 01:28:00;;;;;;;1.70;1.00;;;;;;;7.98;100.00;99487.44;696745;28;2431;-52
2021/12/01 01:28:20;;;;;;;2.00;1.00;;;;;;;8.00;100.00;99485.66;696364;28;4561;-51
2021/12/01 01:28:42;;;;;;;1.90;1.07;;;;;;;8.03;100.00;99480.44;696662;28;1059;-52
2021/12/01 01:29:04;;;;;;;1.70;0.93;;;;;;;8.12;100.00;99480.31;698201;28;1584;-52
2021/12/01 01:29:25;;;;;;;1.88;1.05;;;;;;;8.00;100.00;99480.47;696124;28;1079;-55
2021/12/01 01:29:46;;;;;;;3.40;1.13;;;;;;;8.01;100.00;99487.41;695967;28;1317;-54
2021/12/01 01:30:07;;;;;;;2.20;1.10;;;;;;;8.09;100.00;99488.16;693158;28;1262;-51
2021/12/01 01:30:27;;;;;;;1.65;1.00;;;;;;;8.11;100.00;99481.19;692921;28;1190;-51
2021/12/01 01:30:48;;;;;;;1.95;0.95;;;;;;;8.04;100.00;99487.34;693404;28;3267;-52
2021/12/01 01:31:09;;;;;;;1.93;1.10;;;;;;;7.94;100.00;99485.75;693446;28;1330;-53
2021/12/01 01:31:30;;;;;;;1.80;1.08;;;;;;;7.84;100.00;99483.25;691430;28;4586;-52
2021/12/01 01:31:53;;;;;;;1.50;1.00;;;;;;;7.80;100.00;99486.78;694676;28;1917;-51
2021/12/01 01:32:13;;;;;;;2.20;1.02;;;;;;;7.76;100.00;99487.69;696610;28;1075;-53
2021/12/01 01:32:34;;;;;;;2.23;1.10;;;;;;;7.83;100.00;99478.94;694314;28;1249;-53
2021/12/01 01:32:54;;;;;;;1.70;1.00;;;;;;;7.86;100.00;99482.38;691961;28;1305;-51
2021/12/01 01:33:15;;;;;;;2.03;1.00;;;;;;;7.78;100.00;99483.34;691348;28;1298;-52
2021/12/01 01:33:35;;;;;;;3.20;1.20;;;;;;;7.76;100.00;99482.50;691190;28;1250;-51
2021/12/01 01:33:57;;;;;;;3.67;1.17;;;;;;;7.79;100.00;99479.84;692234;28;2002;-51
2021/12/01 01:34:18;;;;;;;2.33;1.00;;;;;;;7.79;100.00;99487.66;689287;28;4373;-50
2021/12/01 01:34:38;;;;;;;2.47;1.00;;;;;;;7.78;100.00;99485.97;691794;28;1167;-53
2021/12/01 01:34:59;;;;;;;2.35;1.30;;;;;;;7.76;100.00;99476.44;692497;28;1322;-50
2021/12/01 01:35:20;;;;;;;1.63;1.05;;;;;;;7.77;100.00;99484.22;693957;28;1209;-52
2021/12/01 01:35:40;;;;;;;2.17;1.00;;;;;;;7.71;100.00;99479.09;693866;28;1278;-53
2021/12/01 01:36:01;;;;;;;1.58;0.88;;;;;;;7.90;100.00;99473.66;692938;28;1277;-55
2021/12/01 01:36:21;;;;;;;1.20;0.80;;;;;;;8.01;100.00;99477.84;689913;28;1213;-54
2021/12/01 01:36:41;;;;;;;1.10;0.90;;;;;;;7.94;100.00;99470.16;689208;28;1351;-53
2021/12/01 01:37:02;;;;;;;1.37;0.90;;;;;;;7.96;100.00;99468.38;690472;28;3404;-54
2021/12/01 01:37:22;;;;;;;1.98;0.93;;;;;;;7.92;100.00;99469.28;689381;28;4591;-55
2021/12/01 01:37:43;;;;;;;1.70;0.80;;;;;;;7.93;100.00;99487.47;690285;28;1167;-51
2021/12/01 01:38:03;;;;;;;1.52;0.90;;;;;;;8.04;99.96;99469.13;693970;28;1076;-56
2021/12/01 01:38:24;;;;;;;2.10;0.80;;;;;;;8.07;100.00;99481.25;697870;28;1043;-54
2021/12/01 01:38:45;;;;;;;1.70;0.88;;;;;;;8.06;99.89;99485.59;698169;28;1265;-54
2021/12/01 01:39:05;;;;;;;2.45;0.85;;;;;;;8.03;100.00;99475.25;697104;28;1222;-52
2021/12/01 01:39:26;;;;;;;1.70;0.80;;;;;;;7.97;100.00;99480.50;694903;28;1263;-54
2021/12/01 01:39:46;;;;;;;1.43;0.90;;;;;;;7.92;100.00;99480.56;691648;28;1409;-51
2021/12/01 01:40:08;;;;;;;1.98;0.90;;;;;;;7.89;100.00;99474.53;692291;28;2969;-52
2021/12/01 01:40:29;;;;;;;2.25;0.98;;;;;;;7.88;100.00;99478.00;690850;28;4576;-52
2021/12/01 01:40:49;;;;;;;1.57;0.97;;;;;;;7.82;100.00;99486.75;691003;28;1341;-52
2021/12/01 01:41:11;;;;;;;1.77;0.90;;;;;;;7.76;100.00;99482.50;691267;28;1448;-52
2021/12/01 01:41:32;;;;;;;1.20;0.82;;;;;;;7.88;100.00;99480.63;694352;28;1726;-52
2021/12/01 01:41:54;;;;;;;1.77;1.00;;;;;;;7.92;100.00;99482.28;694231;28;1265;-56
2021/12/01 01:42:14;;;;;;;2.33;0.93;;;;;;;7.80;100.00;99478.97;694347;28;1154;-51
2021/12/01 01:42:35;;;;;;;1.30;0.85;;;;;;;7.96;99.60;99486.59;694140;28;3984;-52
2021/12/01 01:42:55;;;;;;;1.13;0.83;;;;;;;7.92;100.00;99475.38;692162;28;1266;-52
2021/12/01 01:43:16;;;;;;;3.13;0.98;;;;;;;8.00;99.49;99481.34;693894;28;3506;-53
2021/12/01 01:43:39;;;;;;;3.53;1.02;;;;;;;7.95;100.00;99474.47;695229;28;4546;-53
2021/12/01 01:44:00;;;;;;;2.47;1.00;;;;;;;7.87;100.00;99481.53;696715;28;1097;-52
2021/12/01 01:44:20;;;;;;;2.03;1.05;;;;;;;7.82;100.00;99476.34;697291;28;1161;-56
2021/12/01 01:44:41;;;;;;;2.57;1.00;;;;;;;7.75;100.00;99480.75;697770;28;1246;-52
2021/12/01 01:45:03;;;;;;;1.88;0.90;;;;;;;7.66;100.00;99470.50;697264;28;1277;-53
2021/12/01 01:45:23;;;;;;;1.80;0.90;;;;;;;7.70;100.00;99472.19;697873;28;1573;-52
2021/12/01 01:45:43;;;;;;;2.03;0.90;;;;;;;7.75;100.00;99472.97;697366;28;1169;-52
2021/12/01 01:46:08;;;;;;;1.83;0.90;;;;;;;7.79;100.00;99473.78;697709;28;1138;-53
2021/12/01 01:46:34;;;;;;;1.17;0.77;;;;;;;8.00;99.73;99475.25;691161;28;4527;-52
2021/12/01 01:46:54;;;;;;;1.20;0.80;;;;;;;8.00;99.94;99475.25;691518;28;1698;-51
2021/12/01 01:47:14;;;;;;;1.67;0.85;;;;;;;7.93;99.92;99478.81;692207;28;1238;-52
2021/12/01 01:47:35;;;;;;;2.20;0.80;;;;;;;7.84;100.00;99475.47;689141;28;1235;-55
2021/12/01 01:48:06;;;;;;;2.03;0.80;;;;;;;7.83;100.00;99483.28;688060;28;1409;-53
2021/12/01 01:48:35;;;;;;;1.63;0.90;;;;;;;7.85;100.00;99471.13;691475;28;1084;-53
2021/12/01 01:49:05;;;;;;;1.50;0.90;;;;;;;7.91;100.00;99475.41;692057;28;1175;-52
2021/12/01 01:50:37;;;;;;;1.50;0.80;;;;;;;7.78;100.00;99465.16;694321;28;2048;-53
2021/12/01 01:51:02;;;;;;;1.58;0.80;;;;;;;7.73;100.00;99472.13;691764;28;1313;-51